Time;durP1;ratioP1;P1;durP2;ratioP2;P2;SDS_P1;SDS_P2;PMS_P1;PMS_P2;Temp;Humidity;BMP_temperature;BMP_pressure;BME280_temperature;BME280_humidity;BME280_pressure;Samples;Min_cycle;Max_cycle;Signal;HPM_P1;HPM_P2
2023/04/24 00:01:07;;;;;;;6.77;4.67;;;10.80;99.90;;;;;;4163180;28;20428;-78
2023/04/24 00:03:08;;;;;;;7.73;4.73;;;10.70;99.90;;;;;;4159270;28;20025;-72
2023/04/24 00:05:09;;;;;;;5.13;3.97;;;10.70;99.90;;;;;;4162716;28;20425;-78
2023/04/24 00:07:11;;;;;;;13.30;5.00;;;10.60;99.90;;;;;;4162854;28;20029;-77
2023/04/24 00:09:12;;;;;;;11.47;4.37;;;10.60;99.90;;;;;;4162132;28;20462;-72
2023/04/24 00:11:13;;;;;;;10.10;4.90;;;10.60;99.90;;;;;;4162476;28;20103;-77
2023/04/24 00:13:14;;;;;;;8.00;5.20;;;10.50;99.90;;;;;;4161413;28;20486;-73
2023/04/24 00:15:15;;;;;;;5.43;4.40;;;10.50;99.90;;;;;;4163211;28;20099;-78
2023/04/24 00:17:19;;;;;;;4.13;3.60;;;10.40;99.90;;;;;;4161319;28;20108;-74
2023/04/24 00:19:21;;;;;;;5.00;3.67;;;10.40;99.90;;;;;;4145207;28;20080;-79
2023/04/24 00:21:25;;;;;;;5.03;3.90;;;10.20;99.90;;;;;;4161617;28;20424;-76
2023/04/24 00:23:26;;;;;;;5.13;3.70;;;10.20;99.90;;;;;;4162978;28;20034;-71
2023/04/24 00:25:27;;;;;;;5.00;3.80;;;10.10;99.90;;;;;;4161363;28;20367;-79
2023/04/24 00:27:28;;;;;;;5.80;4.10;;;10.10;99.90;;;;;;4163117;28;20485;-73
2023/04/24 00:29:29;;;;;;;5.40;3.80;;;10.00;99.90;;;;;;4162091;28;20041;-78
2023/04/24 00:31:31;;;;;;;7.83;4.50;;;10.00;99.90;;;;;;4161518;28;20037;-78
2023/04/24 00:33:32;;;;;;;4.60;3.90;;;9.90;99.90;;;;;;4153676;28;20094;-79
2023/04/24 00:35:33;;;;;;;7.97;4.40;;;9.80;99.90;;;;;;4162367;28;20038;-79
2023/04/24 00:37:34;;;;;;;4.53;4.13;;;9.80;99.90;;;;;;4161661;28;20045;-78
2023/04/24 00:39:35;;;;;;;6.70;4.60;;;9.60;99.90;;;;;;4161680;28;20052;-79
2023/04/24 00:41:37;;;;;;;7.87;4.53;;;9.60;99.90;;;;;;4162463;28;20417;-78
2023/04/24 00:43:38;;;;;;;5.23;4.60;;;9.50;99.90;;;;;;4160797;28;20533;-79
2023/04/24 00:45:40;;;;;;;6.07;4.90;;;9.40;99.90;;;;;;4162636;28;20029;-77
2023/04/24 00:47:42;;;;;;;6.30;4.90;;;9.30;99.90;;;;;;4161438;28;20045;-73
2023/04/24 00:49:43;;;;;;;6.93;4.40;;;9.20;99.90;;;;;;4162293;28;20046;-80
2023/04/24 00:51:45;;;;;;;7.13;4.67;;;9.10;99.90;;;;;;4161178;28;20037;-75
2023/04/24 00:53:46;;;;;;;7.53;5.53;;;9.10;99.90;;;;;;4161970;28;20041;-78
2023/04/24 00:55:48;;;;;;;6.87;4.63;;;9.10;99.90;;;;;;4161437;28;20433;-78
2023/04/24 00:57:50;;;;;;;4.50;4.03;;;9.00;99.90;;;;;;4145043;28;20477;-72
2023/04/24 00:59:53;;;;;;;6.73;5.13;;;9.00;99.90;;;;;;4160796;28;20045;-77
2023/04/24 01:01:55;;;;;;;8.77;5.20;;;8.90;99.90;;;;;;4161786;28;20524;-79
2023/04/24 01:03:57;;;;;;;6.37;5.00;;;8.80;99.90;;;;;;4161141;28;20041;-74
2023/04/24 01:05:59;;;;;;;7.83;4.83;;;8.90;99.90;;;;;;4162030;28;20087;-76
2023/04/24 01:08:01;;;;;;;6.77;4.50;;;8.80;99.90;;;;;;4161244;28;20025;-78
2023/04/24 01:10:03;;;;;;;6.57;4.13;;;8.80;99.90;;;;;;4161817;28;20033;-79
2023/04/24 01:12:05;;;;;;;5.30;4.77;;;8.80;99.90;;;;;;4154668;28;20076;-69
2023/04/24 01:14:06;;;;;;;10.73;4.43;;;8.70;99.90;;;;;;4150675;28;20466;-77
2023/04/24 01:16:07;;;;;;;6.53;4.93;;;8.70;99.90;;;;;;4146029;28;20033;-78
2023/04/24 01:18:08;;;;;;;9.70;5.80;;;8.60;99.90;;;;;;4144753;28;20434;-77
2023/04/24 01:20:10;;;;;;;6.93;4.90;;;8.70;99.90;;;;;;4145625;28;20148;-78
2023/04/24 01:22:13;;;;;;;6.67;4.70;;;8.60;99.90;;;;;;4144794;28;20073;-76
2023/04/24 01:24:15;;;;;;;6.80;4.53;;;8.60;99.90;;;;;;4145644;28;20042;-76
2023/04/24 01:26:19;;;;;;;7.13;4.73;;;8.60;99.90;;;;;;4144683;28;20038;-77
2023/04/24 01:28:21;;;;;;;8.87;4.97;;;8.60;99.90;;;;;;4145956;28;20052;-80
2023/04/24 01:30:22;;;;;;;10.30;5.37;;;8.60;99.90;;;;;;4127130;28;20049;-70
2023/04/24 01:32:25;;;;;;;8.63;5.40;;;8.60;99.90;;;;;;4145715;28;20037;-78
2023/04/24 01:34:26;;;;;;;8.43;5.93;;;8.60;99.90;;;;;;4159731;28;20099;-72
2023/04/24 01:36:31;;;;;;;7.63;5.30;;;8.60;99.90;;;;;;4161904;28;20527;-80
2023/04/24 01:38:32;;;;;;;8.73;5.47;;;8.60;99.90;;;;;;4145088;28;20034;-78
2023/04/24 01:40:33;;;;;;;8.27;4.70;;;8.60;99.90;;;;;;4145470;28;20548;-73
2023/04/24 01:42:35;;;;;;;7.17;5.37;;;8.60;99.90;;;;;;4145025;28;20375;-79
2023/04/24 01:44:36;;;;;;;10.83;5.37;;;8.50;99.90;;;;;;4154903;28;20057;-71
2023/04/24 01:46:38;;;;;;;6.20;4.87;;;8.50;99.90;;;;;;4161449;28;20535;-75
2023/04/24 01:48:40;;;;;;;7.27;4.83;;;8.50;99.90;;;;;;4160965;28;20029;-67
2023/04/24 01:50:41;;;;;;;7.73;5.20;;;8.40;99.90;;;;;;4161792;28;20071;-79
2023/04/24 01:52:42;;;;;;;7.80;5.00;;;8.40;99.90;;;;;;4160856;28;20018;-71
2023/04/24 01:54:44;;;;;;;6.93;5.17;;;8.30;99.90;;;;;;4161754;28;20096;-77
2023/04/24 01:56:46;;;;;;;8.07;4.90;;;8.30;99.90;;;;;;4160837;28;20038;-78
2023/04/24 01:58:47;;;;;;;7.07;4.77;;;8.30;99.90;;;;;;4162212;28;20026;-74
2023/04/24 02:00:49;;;;;;;7.37;4.60;;;8.20;99.90;;;;;;4160354;28;20480;-71
2023/04/24 02:02:50;;;;;;;6.60;4.93;;;8.20;99.90;;;;;;4160878;28;20034;-71
2023/04/24 02:04:51;;;;;;;8.97;4.83;;;8.20;99.90;;;;;;4160239;28;20045;-79
2023/04/24 02:06:52;;;;;;;7.57;5.37;;;8.20;99.90;;;;;;4157652;28;20092;-79
2023/04/24 02:08:53;;;;;;;6.77;4.83;;;8.10;99.90;;;;;;4149621;28;20033;-79
2023/04/24 02:10:54;;;;;;;5.43;4.70;;;8.10;99.90;;;;;;4161500;28;20088;-73
2023/04/24 02:12:55;;;;;;;8.80;5.47;;;8.00;99.90;;;;;;4152753;28;20059;-81
2023/04/24 02:14:56;;;;;;;6.23;4.93;;;8.00;99.90;;;;;;4151725;28;20441;-79
2023/04/24 02:16:58;;;;;;;8.57;5.13;;;8.00;99.90;;;;;;4147906;28;20738;-81
2023/04/24 02:18:59;;;;;;;8.50;5.43;;;8.00;99.90;;;;;;4147501;28;20084;-77
2023/04/24 02:21:00;;;;;;;7.03;4.63;;;8.00;99.90;;;;;;4148490;28;20437;-79
2023/04/24 02:23:01;;;;;;;8.53;4.87;;;8.00;99.90;;;;;;4147354;28;20033;-78
2023/04/24 02:25:03;;;;;;;6.23;4.63;;;8.00;99.90;;;;;;4148485;28;20045;-79
2023/04/24 02:27:04;;;;;;;7.23;5.53;;;8.00;99.90;;;;;;4147144;28;20038;-79
2023/04/24 02:29:05;;;;;;;12.07;6.70;;;8.00;99.90;;;;;;4148806;28;20080;-78
2023/04/24 02:31:07;;;;;;;11.10;7.13;;;7.90;99.90;;;;;;4147085;28;20092;-76
2023/04/24 02:33:08;;;;;;;13.97;7.37;;;7.90;99.90;;;;;;4148643;28;20045;-78
2023/04/24 02:35:09;;;;;;;10.07;7.10;;;7.80;99.90;;;;;;4147192;28;20441;-77
2023/04/24 02:37:10;;;;;;;13.47;7.50;;;7.80;99.90;;;;;;4148618;28;20064;-80
2023/04/24 02:39:13;;;;;;;16.80;7.80;;;7.80;99.90;;;;;;4147154;28;20021;-76
2023/04/24 02:41:14;;;;;;;12.90;7.00;;;7.80;99.90;;;;;;4148422;28;20022;-79
2023/04/24 02:43:15;;;;;;;12.20;7.37;;;7.80;99.90;;;;;;4147300;28;20084;-64
2023/04/24 02:45:16;;;;;;;10.07;7.53;;;7.80;99.90;;;;;;4147532;28;20038;-64
2023/04/24 02:47:17;;;;;;;20.10;8.23;;;7.80;99.90;;;;;;4147521;28;20448;-64
2023/04/24 02:49:18;;;;;;;10.50;7.63;;;7.70;99.90;;;;;;4146738;28;20084;-79
2023/04/24 02:51:20;;;;;;;12.20;7.33;;;7.70;99.90;;;;;;4147687;28;20030;-73
2023/04/24 02:53:21;;;;;;;12.50;7.50;;;7.70;99.90;;;;;;4146708;28;20367;-68
2023/04/24 02:55:22;;;;;;;13.70;8.00;;;7.70;99.90;;;;;;4130119;28;20097;-74
2023/04/24 02:57:23;;;;;;;11.83;7.30;;;7.60;99.90;;;;;;4146321;28;20030;-77
2023/04/24 02:59:24;;;;;;;14.57;8.03;;;7.60;99.90;;;;;;4148190;28;20042;-75
2023/04/24 03:01:25;;;;;;;14.23;8.23;;;7.60;99.90;;;;;;4146922;28;20075;-78
2023/04/24 03:03:26;;;;;;;13.40;9.07;;;7.50;99.90;;;;;;4147602;28;20096;-77
2023/04/24 03:05:28;;;;;;;15.70;8.17;;;7.40;99.90;;;;;;4146599;28;20478;-77
2023/04/24 03:07:29;;;;;;;13.77;8.63;;;7.40;99.90;;;;;;4129793;28;20092;-71
2023/04/24 03:09:30;;;;;;;13.27;8.50;;;7.40;99.90;;;;;;4151094;28;20066;-73
2023/04/24 03:11:31;;;;;;;16.50;9.40;;;7.40;99.90;;;;;;4145667;28;20042;-77
2023/04/24 03:13:32;;;;;;;15.70;8.60;;;7.40;99.90;;;;;;4155359;28;20064;-76
2023/04/24 03:15:34;;;;;;;12.10;7.77;;;7.40;99.90;;;;;;4163051;28;20029;-74
2023/04/24 03:17:35;;;;;;;12.50;8.03;;;7.30;99.90;;;;;;4162770;28;20053;-73
2023/04/24 03:19:36;;;;;;;12.87;7.60;;;7.30;99.90;;;;;;4145101;28;20046;-78
2023/04/24 03:21:40;;;;;;;15.70;8.07;;;7.30;99.90;;;;;;4163296;28;20547;-73
2023/04/24 03:23:41;;;;;;;10.37;7.57;;;7.30;99.90;;;;;;4162819;28;20095;-77
2023/04/24 03:25:42;;;;;;;18.40;9.10;;;7.20;99.90;;;;;;4163790;28;20091;-77
2023/04/24 03:27:44;;;;;;;19.40;8.97;;;7.20;99.90;;;;;;4161439;28;20033;-77
2023/04/24 03:29:45;;;;;;;15.57;8.47;;;7.20;99.90;;;;;;4163991;28;20037;-77
2023/04/24 03:31:46;;;;;;;17.40;9.10;;;7.20;99.90;;;;;;4162366;28;20075;-75
2023/04/24 03:33:47;;;;;;;15.67;8.80;;;7.20;99.90;;;;;;4163815;28;20420;-77
2023/04/24 03:35:49;;;;;;;15.33;8.23;;;7.20;99.90;;;;;;4162327;28;20037;-79
2023/04/24 03:37:50;;;;;;;13.27;7.63;;;7.20;99.90;;;;;;4158137;28;20087;-77
2023/04/24 03:39:51;;;;;;;13.83;7.47;;;7.20;99.90;;;;;;4149990;28;20038;-74
2023/04/24 03:41:52;;;;;;;15.80;7.70;;;7.20;99.90;;;;;;4156641;28;20029;-80
2023/04/24 03:43:53;;;;;;;9.83;7.63;;;7.30;99.90;;;;;;4155285;28;20060;-77
2023/04/24 03:45:54;;;;;;;10.27;7.30;;;7.50;99.90;;;;;;4146410;28;20053;-70
2023/04/24 03:47:55;;;;;;;13.40;7.70;;;7.80;99.90;;;;;;4153633;28;20447;-78
2023/04/24 03:49:56;;;;;;;12.70;8.17;;;7.90;99.90;;;;;;4162815;28;20025;-79
2023/04/24 03:51:58;;;;;;;13.87;8.13;;;8.10;99.90;;;;;;4163376;28;20030;-73
2023/04/24 03:53:59;;;;;;;11.40;7.47;;;8.30;99.90;;;;;;4151510;28;20088;-69
2023/04/24 03:56:00;;;;;;;9.33;6.90;;;8.50;99.90;;;;;;4146629;28;20045;-75
2023/04/24 03:58:01;;;;;;;11.97;6.60;;;8.80;99.90;;;;;;4150772;28;20087;-80
2023/04/24 04:00:04;;;;;;;10.03;6.63;;;8.90;99.90;;;;;;4157425;28;20037;-67
2023/04/24 04:02:05;;;;;;;9.67;6.43;;;9.20;99.90;;;;;;4146088;28;20061;-75
2023/04/24 04:04:07;;;;;;;10.20;6.90;;;9.50;99.90;;;;;;4160132;28;20136;-70
2023/04/24 04:06:10;;;;;;;10.50;5.90;;;9.70;99.90;;;;;;4155346;28;20029;-74
2023/04/24 04:08:12;;;;;;;13.33;7.67;;;10.00;99.90;;;;;;4154818;28;20054;-79
2023/04/24 04:10:13;;;;;;;11.20;6.50;;;10.30;99.90;;;;;;4145616;28;20037;-78
2023/04/24 04:12:14;;;;;;;11.67;7.17;;;10.80;99.90;;;;;;4152911;28;20099;-69
2023/04/24 04:14:15;;;;;;;13.50;6.83;;;11.30;99.90;;;;;;4145310;28;20050;-71
2023/04/24 04:16:17;;;;;;;13.73;6.73;;;11.50;99.90;;;;;;4147751;28;20042;-72
2023/04/24 04:18:18;;;;;;;12.03;6.33;;;11.70;99.90;;;;;;4145562;28;20031;-72
2023/04/24 04:20:19;;;;;;;17.33;7.77;;;12.00;99.90;;;;;;4144940;28;20316;-72
2023/04/24 04:22:20;;;;;;;20.03;8.43;;;12.30;99.90;;;;;;4160866;28;20045;-73
2023/04/24 04:24:22;;;;;;;14.27;7.20;;;12.50;99.90;;;;;;4161199;28;20037;-71
2023/04/24 04:26:25;;;;;;;16.97;7.00;;;12.70;99.90;;;;;;4150701;28;20038;-66
2023/04/24 04:28:26;;;;;;;10.37;6.50;;;13.00;99.90;;;;;;4156226;28;20103;-72
2023/04/24 04:30:29;;;;;;;16.47;7.43;;;13.30;99.90;;;;;;4163273;28;20026;-67
2023/04/24 04:32:33;;;;;;;25.20;7.57;;;13.50;99.90;;;;;;4150011;28;20034;-71
2023/04/24 04:34:34;;;;;;;19.37;7.47;;;13.80;99.90;;;;;;4145063;28;20937;-69
2023/04/24 04:36:36;;;;;;;12.70;6.93;;;14.20;99.90;;;;;;4145009;28;20041;-70
2023/04/24 04:38:37;;;;;;;14.33;7.43;;;14.20;99.90;;;;;;4145900;28;20038;-71
2023/04/24 04:40:38;;;;;;;14.60;6.20;;;14.30;99.90;;;;;;4145152;28;20025;-72
2023/04/24 04:42:40;;;;;;;16.07;6.80;;;14.50;99.90;;;;;;4145353;28;20438;-70
2023/04/24 04:44:41;;;;;;;22.43;7.73;;;14.90;99.90;;;;;;4156106;28;20708;-68
2023/04/24 04:46:42;;;;;;;17.20;6.77;;;15.30;99.90;;;;;;4161278;28;20037;-77
2023/04/24 04:48:43;;;;;;;16.60;6.93;;;15.50;99.90;;;;;;4158384;28;20021;-70
2023/04/24 04:50:45;;;;;;;11.37;7.30;;;15.20;99.90;;;;;;4145124;28;20077;-75
2023/04/24 04:52:46;;;;;;;13.45;6.50;;;14.90;99.90;;;;;;4153455;28;20029;-75
2023/04/24 04:54:47;;;;;;;13.55;6.40;;;15.00;99.90;;;;;;4161395;28;20578;-74
2023/04/24 04:56:50;;;;;;;14.88;7.38;;;15.40;99.90;;;;;;4162269;28;20029;-73
2023/04/24 04:58:51;;;;;;;16.65;7.70;;;15.90;99.90;;;;;;4160404;28;20080;-73
2023/04/24 05:00:53;;;;;;;9.13;5.30;;;15.90;99.90;;;;;;4161919;28;20474;-71
2023/04/24 05:02:54;;;;;;;11.00;5.85;;;15.40;99.90;;;;;;4154278;28;20080;-67
2023/04/24 05:04:55;;;;;;;7.60;5.65;;;15.00;99.90;;;;;;4145661;28;20088;-73
2023/04/24 05:06:56;;;;;;;13.25;5.95;;;14.80;99.90;;;;;;4144179;28;20097;-68
2023/04/24 05:08:57;;;;;;;11.65;5.97;;;14.80;99.90;;;;;;4146232;28;20504;-73
2023/04/24 05:10:58;;;;;;;8.70;5.30;;;14.80;99.90;;;;;;4144394;28;20038;-72
2023/04/24 05:13:00;;;;;;;9.25;5.53;;;15.40;99.90;;;;;;4161781;28;20017;-71
2023/04/24 05:15:02;;;;;;;14.48;5.65;;;16.00;99.60;;;;;;4159291;28;20103;-71
2023/04/24 05:17:03;;;;;;;8.85;6.13;;;16.60;98.60;;;;;;4159150;28;20037;-73
2023/04/24 05:19:05;;;;;;;11.82;6.18;;;16.30;98.00;;;;;;4160453;28;20568;-76
2023/04/24 05:21:06;;;;;;;12.25;6.35;;;16.70;97.90;;;;;;4160683;28;20034;-64
2023/04/24 05:23:08;;;;;;;13.95;6.07;;;;;;;;;;4159211;28;20034;-72
2023/04/24 05:25:09;;;;;;;19.65;7.05;;;17.30;96.60;;;;;;4161046;28;20110;-73
2023/04/24 05:27:10;;;;;;;10.98;5.65;;;16.70;96.00;;;;;;4161382;28;20025;-66
2023/04/24 05:29:12;;;;;;;8.80;5.85;;;16.50;96.30;;;;;;4160566;28;20104;-74
2023/04/24 05:31:14;;;;;;;14.60;6.63;;;;;;;;;;4161758;28;20103;-69
2023/04/24 05:33:15;;;;;;;10.90;6.07;;;16.80;96.50;;;;;;4159731;28;20037;-72
2023/04/24 05:35:16;;;;;;;14.25;5.95;;;16.80;95.90;;;;;;4160986;28;20038;-67
2023/04/24 05:37:17;;;;;;;12.40;6.50;;;16.80;95.70;;;;;;4160309;28;20029;-67
2023/04/24 05:39:19;;;;;;;11.85;5.80;;;16.60;95.50;;;;;;4161696;28;20627;-72
2023/04/24 05:41:21;;;;;;;13.30;5.75;;;16.20;95.80;;;;;;4160464;28;20071;-66
2023/04/24 05:43:22;;;;;;;15.65;5.65;;;16.20;96.10;;;;;;4161058;28;20034;-74
2023/04/24 05:45:23;;;;;;;13.45;6.28;;;15.70;96.30;;;;;;4159830;28;20099;-74
2023/04/24 05:47:25;;;;;;;9.93;5.78;;;15.30;97.00;;;;;;4160448;28;20037;-74
2023/04/24 05:49:26;;;;;;;9.30;5.75;;;15.00;97.40;;;;;;4160086;28;20010;-74
2023/04/24 05:51:28;;;;;;;8.05;5.57;;;14.60;98.10;;;;;;4160439;28;20030;-75
2023/04/24 05:53:29;;;;;;;10.40;6.95;;;14.20;98.90;;;;;;4160606;28;20037;-72
2023/04/24 05:55:31;;;;;;;10.25;6.97;;;13.90;99.60;;;;;;4160950;28;20539;-74
2023/04/24 05:57:32;;;;;;;8.83;5.87;;;14.00;99.90;;;;;;4160284;28;20045;-69
2023/04/24 05:59:36;;;;;;;11.40;6.87;;;14.10;99.90;;;;;;4159934;28;20120;-72
2023/04/24 06:01:37;;;;;;;9.10;6.50;;;14.40;99.90;;;;;;4161394;28;20488;-66
2023/04/24 06:03:39;;;;;;;6.37;5.70;;;14.60;99.60;;;;;;4160181;28;20375;-74
2023/04/24 06:05:40;;;;;;;8.57;5.80;;;14.90;99.60;;;;;;4160988;28;20440;-74
2023/04/24 06:07:41;;;;;;;9.10;5.67;;;14.60;99.90;;;;;;4142518;28;20029;-71
2023/04/24 06:09:42;;;;;;;12.97;5.77;;;14.70;99.90;;;;;;4161217;28;20045;-74
2023/04/24 06:11:43;;;;;;;12.70;6.40;;;14.70;99.90;;;;;;4160283;28;20087;-73
2023/04/24 06:13:45;;;;;;;8.07;5.97;;;14.80;99.90;;;;;;4161321;28;20033;-74
2023/04/24 06:15:46;;;;;;;9.23;5.60;;;14.70;99.90;;;;;;4160182;28;20449;-71
2023/04/24 06:17:47;;;;;;;11.33;6.03;;;14.70;99.90;;;;;;4160964;28;20058;-72
2023/04/24 06:19:48;;;;;;;8.60;5.60;;;14.40;99.90;;;;;;4159773;28;20033;-74
2023/04/24 06:21:50;;;;;;;6.90;4.80;;;14.60;99.90;;;;;;4160811;28;20096;-73
2023/04/24 06:23:51;;;;;;;10.53;5.50;;;14.60;99.90;;;;;;4159653;28;20037;-74
2023/04/24 06:25:52;;;;;;;12.30;5.67;;;14.20;99.90;;;;;;4160610;28;20087;-75
2023/04/24 06:27:54;;;;;;;9.73;5.53;;;13.90;99.90;;;;;;4160595;28;20095;-72
2023/04/24 06:29:55;;;;;;;6.87;4.70;;;13.80;99.90;;;;;;4159892;28;20029;-74
2023/04/24 06:31:57;;;;;;;9.00;5.60;;;13.80;99.90;;;;;;4161156;28;20080;-74
2023/04/24 06:33:58;;;;;;;9.00;5.70;;;13.80;99.90;;;;;;4159125;28;20042;-75
2023/04/24 06:35:59;;;;;;;11.40;6.13;;;13.70;99.90;;;;;;4142789;28;20651;-67
2023/04/24 06:38:00;;;;;;;9.13;5.50;;;13.70;99.90;;;;;;4159632;28;20075;-74
2023/04/24 06:40:01;;;;;;;9.97;5.37;;;13.80;99.90;;;;;;4142953;28;20153;-73
2023/04/24 06:42:02;;;;;;;7.10;5.47;;;13.90;99.90;;;;;;4159612;28;20029;-75
2023/04/24 06:44:03;;;;;;;7.93;4.73;;;14.10;99.90;;;;;;4160996;28;20033;-73
2023/04/24 06:46:05;;;;;;;9.60;5.47;;;14.20;99.90;;;;;;4159826;28;20042;-76
2023/04/24 06:48:06;;;;;;;12.03;5.00;;;14.10;99.90;;;;;;4143389;28;20039;-75
2023/04/24 06:50:07;;;;;;;5.13;4.63;;;14.00;99.90;;;;;;4159056;28;20041;-71
2023/04/24 06:52:09;;;;;;;12.10;4.70;;;13.90;99.90;;;;;;4160550;28;20474;-75
2023/04/24 06:54:10;;;;;;;5.27;4.77;;;13.90;99.90;;;;;;4159987;28;20355;-74
2023/04/24 06:56:11;;;;;;;6.87;4.80;;;13.80;99.90;;;;;;4160301;28;20441;-74
2023/04/24 06:58:13;;;;;;;10.43;6.23;;;13.80;99.90;;;;;;4159682;28;20038;-73
2023/04/24 07:00:14;;;;;;;6.67;4.40;;;13.90;99.90;;;;;;4159859;28;20057;-72
2023/04/24 07:02:15;;;;;;;7.17;4.70;;;14.00;99.90;;;;;;4162918;28;20100;-73
2023/04/24 07:04:17;;;;;;;9.30;5.13;;;13.90;99.90;;;;;;4162699;28;20512;-72
2023/04/24 07:06:21;;;;;;;14.00;5.63;;;14.20;99.90;;;;;;4163758;28;20041;-64
2023/04/24 07:08:22;;;;;;;9.03;5.37;;;14.40;99.90;;;;;;4162705;28;20083;-74
2023/04/24 07:10:25;;;;;;;7.03;4.77;;;14.50;99.90;;;;;;4163739;28;20436;-74
2023/04/24 07:12:26;;;;;;;7.90;4.57;;;14.50;99.90;;;;;;4161865;28;20033;-75
2023/04/24 07:14:27;;;;;;;4.77;4.10;;;14.40;99.90;;;;;;4163835;28;20477;-71
2023/04/24 07:16:30;;;;;;;5.43;4.23;;;14.40;99.90;;;;;;4161507;28;20088;-74
2023/04/24 07:18:31;;;;;;;11.80;4.73;;;14.50;99.90;;;;;;4163598;28;20543;-73
2023/04/24 07:20:33;;;;;;;8.03;4.77;;;14.80;99.90;;;;;;4144946;28;20096;-73
2023/04/24 07:22:34;;;;;;;6.50;4.37;;;15.00;99.90;;;;;;4162846;28;20053;-73
2023/04/24 07:24:35;;;;;;;9.30;4.60;;;15.10;99.90;;;;;;4161713;28;20493;-68
2023/04/24 07:26:37;;;;;;;7.20;4.43;;;15.10;99.90;;;;;;4144738;28;20092;-70
2023/04/24 07:28:39;;;;;;;6.73;4.67;;;14.90;99.90;;;;;;4162382;28;20401;-72
2023/04/24 07:30:40;;;;;;;9.53;4.87;;;14.90;99.90;;;;;;4163035;28;20544;-74
2023/04/24 07:32:41;;;;;;;10.57;5.27;;;14.90;99.90;;;;;;4163090;28;20037;-74
2023/04/24 07:34:42;;;;;;;21.23;11.93;;;14.90;99.90;;;;;;4162213;28;20083;-69
2023/04/24 07:36:43;;;;;;;5.17;4.07;;;14.90;99.90;;;;;;4163045;28;20041;-75
2023/04/24 07:38:46;;;;;;;4.23;3.70;;;14.80;99.90;;;;;;4162416;28;20436;-73
2023/04/24 07:40:47;;;;;;;7.77;4.10;;;15.00;99.90;;;;;;4163399;28;20083;-71
2023/04/24 07:42:48;;;;;;;5.33;4.00;;;15.00;99.90;;;;;;4161904;28;20041;-70
2023/04/24 07:44:51;;;;;;;4.97;4.50;;;15.00;99.90;;;;;;4163317;28;20092;-74
2023/04/24 07:46:52;;;;;;;4.35;3.95;;;14.90;99.90;;;;;;4161776;28;20380;-74
2023/04/24 07:48:53;;;;;;;6.00;3.97;;;14.80;99.90;;;;;;4163340;28;20029;-71
2023/04/24 07:50:55;;;;;;;7.67;4.30;;;14.80;99.90;;;;;;4161696;28;20045;-71
2023/04/24 07:52:56;;;;;;;9.13;4.63;;;15.00;99.90;;;;;;4145423;28;20469;-69
2023/04/24 07:55:00;;;;;;;7.80;4.30;;;15.20;99.90;;;;;;4162003;28;20025;-73
2023/04/24 07:57:01;;;;;;;5.97;3.97;;;15.30;99.90;;;;;;4162678;28;20098;-64
2023/04/24 07:59:02;;;;;;;4.30;3.87;;;15.30;99.90;;;;;;4161932;28;20083;-75
2023/04/24 08:01:03;;;;;;;8.43;4.40;;;15.30;99.90;;;;;;4144889;28;20084;-74
2023/04/24 08:03:05;;;;;;;7.53;4.40;;;15.40;99.90;;;;;;4161589;28;20127;-68
2023/04/24 08:05:06;;;;;;;4.50;3.80;;;15.50;99.90;;;;;;4161828;28;20489;-72
2023/04/24 08:07:08;;;;;;;8.93;4.10;;;15.80;99.90;;;;;;4162797;28;20037;-75
2023/04/24 08:09:09;;;;;;;7.63;3.92;;;16.10;99.90;;;;;;4161627;28;20026;-74
2023/04/24 08:11:10;;;;;;;6.13;3.67;;;;;;;;;;4163021;28;20037;-68
2023/04/24 08:13:12;;;;;;;3.63;3.08;;;;;;;;;;4160986;28;20578;-72
2023/04/24 08:15:13;;;;;;;5.57;3.25;;;;;;;;;;4162852;28;20435;-63
2023/04/24 08:17:15;;;;;;;5.72;4.07;;;;;;;;;;4161414;28;20049;-74
2023/04/24 08:19:16;;;;;;;8.82;3.65;;;;;;;;;;4162851;28;20471;-71
2023/04/24 08:21:18;;;;;;;11.48;3.50;;;;;;;;;;4161506;28;20068;-76
2023/04/24 08:23:19;;;;;;;4.72;3.40;;;;;;;;;;4162612;28;20033;-75
2023/04/24 08:25:22;;;;;;;3.55;3.25;;;;;;;;;;4161221;28;20068;-73
2023/04/24 08:27:24;;;;;;;5.13;3.72;;;;;;;;;;4162400;28;20029;-71
2023/04/24 08:29:26;;;;;;;6.70;3.80;;;;;;;;;;4161550;28;20033;-75
2023/04/24 08:31:27;;;;;;;10.93;4.05;;;;;;;;;;4162363;28;20071;-75
2023/04/24 08:33:34;;;;;;;5.68;3.30;;;;;;;;;;4161574;28;20033;-75
2023/04/24 08:35:35;;;;;;;5.05;3.53;;;;;;;;;;4161823;28;20473;-73
2023/04/24 08:37:37;;;;;;;6.18;3.08;;;;;;;;;;4161890;28;20115;-75
2023/04/24 08:39:38;;;;;;;6.93;3.50;;;;;;;;;;4161484;28;20479;-74
2023/04/24 08:41:42;;;;;;;6.20;3.53;;;;;;;;;;4162243;28;20079;-71
2023/04/24 08:43:44;;;;;;;5.30;3.22;;;;;;;;;;4161191;28;20025;-74
2023/04/24 08:45:45;;;;;;;4.28;3.17;;;;;;;;;;4162306;28;20119;-76
2023/04/24 08:47:49;;;;;;;12.13;3.40;;;;;;;;;;4160845;28;20087;-75
2023/04/24 08:49:50;;;;;;;6.88;3.28;;;;;;;;;;4161945;28;20025;-74
2023/04/24 08:51:53;;;;;;;9.55;3.08;;;;;;;;;;4160902;28;20049;-75
2023/04/24 08:53:55;;;;;;;6.47;3.22;;;;;;;;;;4162056;28;20079;-68
2023/04/24 08:55:56;;;;;;;3.83;3.03;;;;;;;;;;4160252;28;20034;-74
2023/04/24 08:57:58;;;;;;;6.15;2.90;;;;;;;;;;4161915;28;20497;-74
2023/04/24 09:00:00;;;;;;;6.03;2.83;;;;;;;;;;4159886;28;20080;-68
2023/04/24 09:02:02;;;;;;;6.10;2.92;;;;;;;;;;4161205;28;20042;-71
2023/04/24 09:04:04;;;;;;;6.53;3.05;;;;;;;;;;4160311;28;20115;-76
2023/04/24 09:06:06;;;;;;;2.63;2.25;;;;;;;;;;4161490;28;20045;-75
2023/04/24 09:08:10;;;;;;;4.05;2.53;;;;;;;;;;4161198;28;20429;-75
2023/04/24 09:10:13;;;;;;;5.03;2.42;;;;;;;;;;4143059;28;20042;-74
2023/04/24 09:12:14;;;;;;;9.43;3.55;;;;;;;;;;4161473;28;20033;-74
2023/04/24 09:14:16;;;;;;;5.43;3.42;;;;;;;;;;4160846;28;20095;-75
2023/04/24 09:16:18;;;;;;;14.85;3.80;;;;;;;;;;4161209;28;20095;-70
2023/04/24 09:18:19;;;;;;;4.45;2.75;;;;;;;;;;4160427;28;20087;-75
2023/04/24 09:20:21;;;;;;;4.05;2.92;;;;;;;;;;4160604;28;20486;-76
2023/04/24 09:22:22;;;;;;;4.82;3.13;;;;;;;;;;4160558;28;20037;-72
2023/04/24 09:24:24;;;;;;;7.10;3.30;;;;;;;;;;4161037;28;20506;-75
2023/04/24 09:26:26;;;;;;;3.05;2.28;;;;;;;;;;4160448;28;20033;-76
2023/04/24 09:28:38;;;;;;;3.50;2.40;;;;;;;;;;4161973;28;20140;-73
2023/04/24 09:30:39;;;;;;;7.30;2.75;;;;;;;;;;4160642;28;20029;-76
2023/04/24 09:32:41;;;;;;;3.50;2.83;;;;;;;;;;4161339;28;20045;-74
2023/04/24 09:34:43;;;;;;;12.40;3.67;;;;;;;;;;4159829;28;20506;-73
2023/04/24 09:36:45;;;;;;;6.00;3.45;;;;;;;;;;4161689;28;20347;-75
2023/04/24 09:38:46;;;;;;;5.53;2.70;;;;;;;;;;4159665;28;20037;-75
2023/04/24 09:40:47;;;;;;;7.00;3.53;;;;;;;;;;4142936;28;20034;-71
2023/04/24 09:42:52;;;;;;;10.20;3.10;;;;;;;;;;4160553;28;20030;-74
2023/04/24 09:44:53;;;;;;;4.00;2.40;;;;;;;;;;4160968;28;20033;-76
2023/04/24 09:46:56;;;;;;;3.53;2.40;;;;;;;;;;4160030;28;20525;-73
2023/04/24 09:48:57;;;;;;;5.10;2.80;;;;;;;;;;4159795;28;20049;-76
2023/04/24 09:50:58;;;;;;;4.10;2.63;;;;;;;;;;4161250;28;20075;-73
2023/04/24 09:53:03;;;;;;;5.20;2.70;;;;;;;;;;4160439;28;20059;-71
2023/04/24 09:55:11;;;;;;;6.32;2.30;;;;;;;;;;4160647;28;20088;-76
2023/04/24 09:57:12;;;;;;;6.00;3.25;;;;;;;;;;4159645;28;20041;-75
2023/04/24 09:59:14;;;;;;;5.60;2.70;;;;;;;;;;4161345;28;20037;-75
2023/04/24 10:01:16;;;;;;;7.85;2.78;;;;;;;;;;4160667;28;20151;-72
2023/04/24 10:03:18;;;;;;;8.50;3.20;;;;;;;;;;4161462;28;20520;-76
2023/04/24 10:05:23;;;;;;;5.30;2.53;;;;;;;;;;4160281;28;20026;-74
2023/04/24 10:07:26;;;;;;;7.85;2.53;;;;;;;;;;4161310;28;20041;-75
2023/04/24 10:09:28;;;;;;;5.03;2.58;;;;;;;;;;4160067;28;20075;-71
2023/04/24 10:11:30;;;;;;;2.92;2.58;;;;;;;;;;4161261;28;20482;-74
2023/04/24 10:13:32;;;;;;;13.07;3.10;;;;;;;;;;4160256;28;20063;-74
2023/04/24 10:15:35;;;;;;;6.45;2.78;;;;;;;;;;4161058;28;20099;-76
2023/04/24 10:17:37;;;;;;;5.07;2.65;;;;;;;;;;4159874;28;20095;-74
2023/04/24 10:19:38;;;;;;;7.47;2.78;;;;;;;;;;4160819;28;20037;-76
2023/04/24 10:21:42;;;;;;;7.78;3.17;;;;;;;;;;4160567;28;20412;-74
2023/04/24 10:23:45;;;;;;;5.80;2.60;;;;;;;;;;4159987;28;20115;-72
2023/04/24 10:25:47;;;;;;;5.60;2.75;;;;;;;;;;4160539;28;20022;-66
2023/04/24 10:27:49;;;;;;;4.03;2.65;;;;;;;;;;4159610;28;20049;-74
2023/04/24 10:29:52;;;;;;;3.92;2.30;;;;;;;;;;4160974;28;20083;-76
2023/04/24 10:31:53;;;;;;;8.48;2.92;;;;;;;;;;4159916;28;20079;-75
2023/04/24 10:33:55;;;;;;;5.18;1.92;;;;;;;;;;4160846;28;20074;-75
2023/04/24 10:35:58;;;;;;;5.93;2.65;;;;;;;;;;4160075;28;20498;-74
2023/04/24 10:38:02;;;;;;;4.03;2.28;;;;;;;;;;4163226;28;20103;-75
2023/04/24 10:40:05;;;;;;;8.77;2.63;;;;;;;;;;4162243;28;20053;-76
2023/04/24 10:42:16;;;;;;;7.70;2.72;;;;;;;;;;4164031;28;20041;-74
2023/04/24 10:44:17;;;;;;;3.95;2.17;;;;;;;;;;4162248;28;20379;-76
2023/04/24 10:46:21;;;;;;;3.00;2.40;;;;;;;;;;4163749;28;20037;-65
2023/04/24 10:48:27;;;;;;;8.23;2.95;;;;;;;;;;4163085;28;20132;-76
2023/04/24 10:50:30;;;;;;;10.55;2.65;;;;;;;;;;4164146;28;20030;-76
2023/04/24 10:52:48;;;;;;;4.00;2.47;;;;;;;;;;4162958;28;20478;-74
2023/04/24 10:54:50;;;;;;;10.70;3.05;;;;;;;;;;4164125;28;20470;-75